Salt Lake City, Utah
Traffic Map
Current Weather Conditions
Salt Lake City, Utah
Broken Clouds Haze
Broken Clouds
30°
Feels Like: 25°
Wind Chill: 25° Ceiling: 800
Heat Index: 30° Visibility: 3mi
Dew Point: 27° Wind: 5mph
Humidity: 88% Direction: 330° (NNW)
Pressure: 30.43in Gusts: 0mph
Raw Report DataKSLC 120328Z 33004KT 3SM BR BKN008 BKN013 M01/M03 A3043 RMK AO2 SFC VIS 3 T10111028
Traffic Incident Summary
Active as of:
Severity:
Category:
InformationThere was an issue retrieving the traffic information for this location. Please try a different location or try again shortly.
Advertisements
Track Severe Weather on mobile